createdAt,value
2017-09-03T00:00:14.214Z,10.66
2017-09-03T00:01:36.365Z,10.73
2017-09-03T00:02:58.565Z,10.74
2017-09-03T00:04:20.548Z,10.81
2017-09-03T00:05:42.766Z,10.82
2017-09-03T00:07:04.615Z,10.79
2017-09-03T00:08:27.466Z,10.84
2017-09-03T00:09:49.294Z,10.79
2017-09-03T00:11:11.450Z,10.88
2017-09-03T00:12:32.954Z,10.89
2017-09-03T00:13:55.427Z,10.89
2017-09-03T00:15:17.591Z,10.74
2017-09-03T00:16:39.409Z,10.84
2017-09-03T00:18:00.598Z,10.78
2017-09-03T00:19:22.144Z,10.73
2017-09-03T00:20:44.614Z,10.61
2017-09-03T00:22:07.175Z,10.52
2017-09-03T00:23:28.998Z,10.52
2017-09-03T00:24:51.447Z,10.52
2017-09-03T00:26:13.592Z,10.38
2017-09-03T00:27:34.772Z,10.44
2017-09-03T00:28:56.904Z,10.32
2017-09-03T00:30:19.408Z,10.26
2017-09-03T00:31:41.566Z,10.22
2017-09-03T00:33:03.544Z,10.09
2017-09-03T00:34:24.705Z,9.99
2017-09-03T00:35:47.244Z,9.93
2017-09-03T00:37:09.741Z,9.84
2017-09-03T00:38:31.248Z,9.74
2017-09-03T00:39:53.088Z,9.72
2017-09-03T00:41:14.584Z,9.64
2017-09-03T00:42:36.734Z,9.58
2017-09-03T00:43:58.873Z,9.6
2017-09-03T00:45:20.704Z,9.6
2017-09-03T00:46:42.892Z,9.57
2017-09-03T00:48:05.386Z,9.6
2017-09-03T00:49:27.531Z,9.54
2017-09-03T00:50:50.044Z,9.48
2017-09-03T00:52:12.889Z,9.43
2017-09-03T00:53:35.171Z,9.43
2017-09-03T00:54:56.763Z,9.43
2017-09-03T00:56:17.953Z,9.36
2017-09-03T00:57:39.803Z,9.33
2017-09-03T00:59:01.961Z,9.28
2017-09-03T01:00:24.513Z,9.21
2017-09-03T01:01:46.357Z,9.26
2017-09-03T01:03:08.454Z,9.2
2017-09-03T01:04:30.763Z,9.14
2017-09-03T01:05:52.603Z,9.14
2017-09-03T01:07:14.434Z,9.05
2017-09-03T01:08:37.254Z,9.13
2017-09-03T01:09:59.825Z,9.02
2017-09-03T01:11:21.984Z,9.08
2017-09-03T01:12:43.494Z,9.1
2017-09-03T01:14:05.881Z,8.99
2017-09-03T01:15:28.363Z,9.1
2017-09-03T01:16:50.894Z,9.1
2017-09-03T01:18:12.739Z,9.1
2017-09-03T01:19:34.575Z,9.01
2017-09-03T01:20:57.165Z,9.08
2017-09-03T01:22:18.989Z,9.01
2017-09-03T01:23:41.141Z,8.92
2017-09-03T01:25:03.278Z,8.96
2017-09-03T01:26:25.432Z,8.94
2017-09-03T01:27:46.770Z,8.96
2017-09-03T01:29:08.589Z,8.95
2017-09-03T01:30:30.371Z,8.84
2017-09-03T01:31:51.874Z,8.92
2017-09-03T01:33:13.705Z,8.87
2017-09-03T01:34:36.155Z,8.96
2017-09-03T01:35:58.344Z,8.83
2017-09-03T01:37:20.193Z,8.81
2017-09-03T01:38:42.649Z,8.83
2017-09-03T01:40:04.523Z,8.84
2017-09-03T01:41:26.635Z,8.84
2017-09-03T01:42:48.135Z,8.79
2017-09-03T01:44:10.632Z,8.94
2017-09-03T01:45:32.247Z,8.92
2017-09-03T01:46:54.376Z,8.87
2017-09-03T01:48:16.188Z,8.84
2017-09-03T01:49:38.014Z,8.83
2017-09-03T01:51:00.183Z,8.81
2017-09-03T01:52:22.738Z,8.83
2017-09-03T01:53:44.964Z,8.96
2017-09-03T01:55:07.459Z,8.77
2017-09-03T01:56:29.613Z,8.8
2017-09-03T01:57:52.174Z,8.77
2017-09-03T01:59:14.321Z,8.81
2017-09-03T02:00:36.472Z,8.77
2017-09-03T02:01:58.459Z,8.83
2017-09-03T02:03:20.312Z,8.77
2017-09-03T02:04:42.146Z,8.83
2017-09-03T02:06:03.953Z,8.7
2017-09-03T02:07:25.444Z,8.77
2017-09-03T02:08:47.625Z,8.7
2017-09-03T02:10:09.126Z,8.8
2017-09-03T02:11:31.265Z,8.77
2017-09-03T02:12:53.515Z,8.79
2017-09-03T02:14:15.679Z,8.74
2017-09-03T02:15:37.181Z,8.7
2017-09-03T02:16:59.345Z,8.66
2017-09-03T02:18:21.158Z,8.68
2017-09-03T02:19:43.671Z,8.73
2017-09-03T02:21:05.945Z,8.68
2017-09-03T02:22:28.413Z,8.7
2017-09-03T02:23:50.634Z,8.56
2017-09-03T02:25:12.697Z,8.52
2017-09-03T02:26:34.195Z,8.56
2017-09-03T02:27:56.335Z,8.5
2017-09-03T02:29:17.825Z,8.44
2017-09-03T02:30:39.689Z,8.5
2017-09-03T02:32:01.521Z,8.47
2017-09-03T02:33:23.650Z,8.43
2017-09-03T02:34:45.810Z,8.38
2017-09-03T02:36:08.452Z,8.3
2017-09-03T02:37:29.612Z,8.38
2017-09-03T02:38:51.799Z,8.45
2017-09-03T02:40:13.949Z,8.44
2017-09-03T02:41:36.388Z,8.34
2017-09-03T02:42:57.901Z,8.36
2017-09-03T02:44:20.106Z,8.34
2017-09-03T02:45:41.910Z,8.3
2017-09-03T02:47:04.096Z,8.37
2017-09-03T02:48:25.911Z,8.36
2017-09-03T02:49:47.442Z,8.18
2017-09-03T02:51:09.670Z,8.33
2017-09-03T02:52:31.861Z,8.16
2017-09-03T02:53:53.668Z,8.19
2017-09-03T02:55:15.817Z,8.28
2017-09-03T02:56:37.315Z,8.18
2017-09-03T02:57:59.508Z,8.23
2017-09-03T02:59:21.403Z,8.2
2017-09-03T03:00:43.253Z,8.2
2017-09-03T03:02:05.087Z,8.18
2017-09-03T03:03:27.352Z,8.22
2017-09-03T03:04:49.652Z,8.19
2017-09-03T03:06:11.822Z,8.19
2017-09-03T03:07:33.963Z,8.15
2017-09-03T03:08:56.140Z,8.15
2017-09-03T03:10:17.631Z,8.19
2017-09-03T03:11:39.188Z,8.11
2017-09-03T03:13:01.352Z,8.18
2017-09-03T03:14:22.803Z,8.11
2017-09-03T03:15:44.613Z,8.08
2017-09-03T03:17:06.762Z,7.97
2017-09-03T03:18:29.240Z,7.93
2017-09-03T03:19:51.108Z,7.79
2017-09-03T03:21:13.415Z,7.82
2017-09-03T03:22:35.673Z,7.83
2017-09-03T03:23:57.823Z,7.72
2017-09-03T03:25:19.965Z,7.75
2017-09-03T03:26:41.813Z,7.79
2017-09-03T03:28:04.275Z,7.68
2017-09-03T03:29:26.736Z,7.74
2017-09-03T03:30:48.896Z,7.79
2017-09-03T03:32:10.400Z,7.79
2017-09-03T03:33:32.549Z,7.71
2017-09-03T03:34:54.401Z,7.85
2017-09-03T03:36:15.933Z,7.82
2017-09-03T03:37:37.414Z,7.79
2017-09-03T03:38:59.239Z,7.82
2017-09-03T03:40:21.061Z,7.83
2017-09-03T03:41:42.862Z,7.9
2017-09-03T03:43:04.363Z,7.82
2017-09-03T03:44:26.515Z,7.8
2017-09-03T03:45:48.657Z,7.8
2017-09-03T03:47:10.866Z,7.89
2017-09-03T03:48:33.010Z,7.93
2017-09-03T03:49:54.933Z,7.95
2017-09-03T03:51:16.560Z,8.01
2017-09-03T03:52:39.388Z,8
2017-09-03T03:54:01.539Z,7.98
2017-09-03T03:55:23.375Z,7.9
2017-09-03T03:56:45.834Z,7.89
2017-09-03T03:58:08.360Z,7.87
2017-09-03T03:59:30.177Z,7.8
2017-09-03T04:00:52.020Z,7.87
2017-09-03T04:02:13.825Z,7.89
2017-09-03T04:03:36.227Z,7.9
2017-09-03T04:04:58.831Z,7.95
2017-09-03T04:06:20.972Z,7.98
2017-09-03T04:07:43.219Z,7.97
2017-09-03T04:09:04.948Z,8.08
2017-09-03T04:10:26.468Z,8.01
2017-09-03T04:11:48.666Z,8.11
2017-09-03T04:13:10.281Z,8.07
2017-09-03T04:14:32.762Z,8.16
2017-09-03T04:15:54.596Z,8.04
2017-09-03T04:17:16.739Z,8.12
2017-09-03T04:18:38.574Z,8.18
2017-09-03T04:20:01.063Z,8.11
2017-09-03T04:21:22.561Z,8.1
2017-09-03T04:22:44.388Z,8.22
2017-09-03T04:24:05.582Z,8.11
2017-09-03T04:25:27.790Z,8.05
2017-09-03T04:26:50.270Z,8.11
2017-09-03T04:28:11.770Z,8.08
2017-09-03T04:29:34.223Z,8.15
2017-09-03T04:30:56.340Z,8.12
2017-09-03T04:32:18.800Z,8.2
2017-09-03T04:33:41.261Z,8.23
2017-09-03T04:35:03.746Z,8.15
2017-09-03T04:36:25.873Z,8.16
2017-09-03T04:37:47.448Z,8.16
2017-09-03T04:39:09.307Z,8.15
2017-09-03T04:40:30.483Z,8.15
2017-09-03T04:41:52.906Z,8.22
2017-09-03T04:43:15.371Z,8.15
2017-09-03T04:44:37.332Z,8.15
2017-09-03T04:45:58.843Z,8.16
2017-09-03T04:47:20.637Z,8.18
2017-09-03T04:48:42.281Z,8.16
2017-09-03T04:50:03.797Z,8.18
2017-09-03T04:51:25.615Z,8.19
2017-09-03T04:52:47.732Z,8.26
2017-09-03T04:54:09.223Z,8.33
2017-09-03T04:55:31.367Z,8.34
2017-09-03T04:56:53.512Z,8.34
2017-09-03T04:58:16.003Z,8.43
2017-09-03T04:59:37.839Z,8.4
2017-09-03T05:00:59.654Z,8.44
2017-09-03T05:02:21.164Z,8.47
2017-09-03T05:03:43.713Z,8.52
2017-09-03T05:05:05.190Z,8.58
2017-09-03T05:06:27.014Z,8.62
2017-09-03T05:07:49.484Z,8.59
2017-09-03T05:09:11.921Z,8.7
2017-09-03T05:10:33.451Z,8.79
2017-09-03T05:11:55.923Z,8.77
2017-09-03T05:13:17.783Z,8.76
2017-09-03T05:14:39.757Z,8.83
2017-09-03T05:16:02.219Z,8.91
2017-09-03T05:17:23.728Z,9.01
2017-09-03T05:18:45.543Z,8.95
2017-09-03T05:20:07.406Z,8.94
2017-09-03T05:21:29.862Z,8.98
2017-09-03T05:22:51.502Z,9.1
2017-09-03T05:24:13.334Z,9.13
2017-09-03T05:25:36.066Z,9.21
2017-09-03T05:26:58.263Z,9.31
2017-09-03T05:28:20.413Z,9.42
2017-09-03T05:29:42.013Z,9.5
2017-09-03T05:31:04.186Z,9.56
2017-09-03T05:32:25.703Z,9.74
2017-09-03T05:33:47.527Z,9.78
2017-09-03T05:35:10.036Z,9.83
2017-09-03T05:36:32.524Z,9.99
2017-09-03T05:37:54.687Z,10.2
2017-09-03T05:39:17.181Z,10.34
2017-09-03T05:40:39.339Z,10.42
2017-09-03T05:42:01.929Z,10.68
2017-09-03T05:43:23.422Z,11.11
2017-09-03T05:44:44.602Z,12.28
2017-09-03T05:46:06.433Z,13.64
2017-09-03T05:47:28.172Z,14.94
2017-09-03T05:48:50.318Z,15.82
2017-09-03T05:50:12.166Z,16.24
2017-09-03T05:51:33.018Z,16.25
2017-09-03T05:52:55.542Z,16.79
2017-09-03T05:54:17.714Z,17.33
2017-09-03T05:55:39.566Z,17.54
2017-09-03T05:57:01.432Z,16.96
2017-09-03T05:58:23.924Z,16.05
2017-09-03T05:59:46.200Z,16.24
2017-09-03T06:01:08.147Z,17.11
2017-09-03T06:02:30.620Z,18.25
2017-09-03T06:03:53.369Z,19.28
2017-09-03T06:05:15.314Z,20.21
2017-09-03T06:06:37.553Z,20.92
2017-09-03T06:07:59.173Z,21.44
2017-09-03T06:09:21.573Z,22.02
2017-09-03T06:10:43.943Z,22.3
2017-09-03T06:12:06.101Z,22.76
2017-09-03T06:13:28.250Z,23.07
2017-09-03T06:14:50.764Z,23.31
2017-09-03T06:16:12.613Z,23.4
2017-09-03T06:17:35.084Z,23.54
2017-09-03T06:18:57.354Z,23.48
2017-09-03T06:20:19.480Z,23.73
2017-09-03T06:21:41.644Z,23.94
2017-09-03T06:23:03.889Z,24.18
2017-09-03T06:24:25.423Z,24.53
2017-09-03T06:25:47.233Z,24.83
2017-09-03T06:27:08.833Z,25.15
2017-09-03T06:28:30.824Z,25.51
2017-09-03T06:29:52.997Z,25.67
2017-09-03T06:31:15.503Z,25.94
2017-09-03T06:32:38.041Z,26.13
2017-09-03T06:34:00.184Z,26.44
2017-09-03T06:35:22.353Z,26.54
2017-09-03T06:36:44.545Z,26.51
2017-09-03T06:38:07.072Z,26.82
2017-09-03T06:39:28.594Z,27.04
2017-09-03T06:40:50.125Z,27.25
2017-09-03T06:42:12.973Z,27.46
2017-09-03T06:43:33.874Z,27.46
2017-09-03T06:44:56.064Z,27.67
2017-09-03T06:46:18.243Z,27.88
2017-09-03T06:47:40.780Z,27.88
2017-09-03T06:49:02.734Z,28.07
2017-09-03T06:50:24.268Z,28.27
2017-09-03T06:51:46.094Z,28.62
2017-09-03T06:53:08.986Z,28.77
2017-09-03T06:54:31.151Z,28.89
2017-09-03T06:55:53.007Z,28.98
2017-09-03T06:57:15.184Z,29.27
2017-09-03T06:58:37.334Z,29.42
2017-09-03T06:59:59.522Z,29.61
2017-09-03T07:01:21.694Z,29.82
2017-09-03T07:02:43.874Z,29.8
2017-09-03T07:04:06.372Z,29.67
2017-09-03T07:05:28.705Z,29.74
2017-09-03T07:06:50.543Z,29.78
2017-09-03T07:08:12.416Z,29.97
2017-09-03T07:09:35.271Z,30.08
2017-09-03T07:10:57.286Z,30.16
2017-09-03T07:12:19.129Z,30.16
2017-09-03T07:13:40.753Z,30.04
2017-09-03T07:15:02.586Z,30.24
2017-09-03T07:16:24.745Z,30.27
2017-09-03T07:17:46.593Z,30.19
2017-09-03T07:19:08.855Z,30.11
2017-09-03T07:20:31.710Z,30.26
2017-09-03T07:21:53.384Z,30.29
2017-09-03T07:23:14.580Z,30.27
2017-09-03T07:24:36.750Z,30.31
2017-09-03T07:25:59.013Z,30.34
2017-09-03T07:27:20.373Z,30.31
2017-09-03T07:28:41.891Z,30.43
2017-09-03T07:30:03.862Z,30.31
2017-09-03T07:31:26.079Z,30.45
2017-09-03T07:32:47.274Z,30.15
2017-09-03T07:34:09.445Z,30.16
2017-09-03T07:35:31.294Z,30.13
2017-09-03T07:36:54.130Z,29.83
2017-09-03T07:38:16.449Z,29.74
2017-09-03T07:39:38.984Z,29.61
2017-09-03T07:41:00.510Z,29.36
2017-09-03T07:42:22.714Z,29.43
2017-09-03T07:43:44.863Z,29.28
2017-09-03T07:45:07.051Z,29.14
2017-09-03T07:46:29.244Z,28.34
2017-09-03T07:47:51.422Z,27.24
2017-09-03T07:49:12.956Z,26.05
2017-09-03T07:50:35.476Z,24.81
2017-09-03T07:51:56.804Z,23.61
2017-09-03T07:53:19.280Z,22.36
2017-09-03T07:54:41.875Z,21.53
2017-09-03T07:56:04.239Z,20.92
2017-09-03T07:57:25.773Z,20.32
2017-09-03T07:58:48.003Z,19.96
2017-09-03T08:00:10.512Z,19.68
2017-09-03T08:01:32.690Z,19.43
2017-09-03T08:02:54.856Z,19.23
2017-09-03T08:04:17.635Z,18.92
2017-09-03T08:05:39.921Z,18.72
2017-09-03T08:07:02.168Z,18.58
2017-09-03T08:08:24.633Z,18.62
2017-09-03T08:09:46.768Z,18.5
2017-09-03T08:11:08.623Z,18.42
2017-09-03T08:12:30.784Z,18.32
2017-09-03T08:13:52.962Z,18.36
2017-09-03T08:15:15.727Z,18.26
2017-09-03T08:16:38.233Z,18.32
2017-09-03T08:18:00.084Z,18.26
2017-09-03T08:19:22.596Z,18.33
2017-09-03T08:20:45.101Z,18.21
2017-09-03T08:22:07.692Z,18.27
2017-09-03T08:23:29.854Z,18.3
2017-09-03T08:24:52.117Z,18.27
2017-09-03T08:26:14.369Z,18.29
2017-09-03T08:27:36.325Z,18.35
2017-09-03T08:28:58.824Z,18.37
2017-09-03T08:30:21.234Z,18.32
2017-09-03T08:31:43.995Z,18.29
2017-09-03T08:33:05.953Z,18.29
2017-09-03T08:34:28.465Z,18.32
2017-09-03T08:35:50.865Z,18.47
2017-09-03T08:37:13.715Z,18.45
2017-09-03T08:38:36.034Z,18.47
2017-09-03T08:39:57.898Z,18.47
2017-09-03T08:41:20.354Z,18.41
2017-09-03T08:42:42.493Z,18.41
2017-09-03T08:44:04.701Z,18.39
2017-09-03T08:45:26.891Z,18.41
2017-09-03T08:46:49.054Z,18.44
2017-09-03T08:48:11.505Z,18.47
2017-09-03T08:49:34.021Z,18.58
2017-09-03T08:50:56.173Z,18.62
2017-09-03T08:52:17.765Z,18.58
2017-09-03T08:53:40.295Z,18.67
2017-09-03T08:55:01.815Z,18.7
2017-09-03T08:56:23.642Z,18.76
2017-09-03T08:57:45.846Z,18.87
2017-09-03T08:59:08.555Z,18.82
2017-09-03T09:00:30.423Z,18.58
2017-09-03T09:01:52.929Z,18.45
2017-09-03T09:03:15.203Z,18.3
2017-09-03T09:04:37.995Z,18.25
2017-09-03T09:05:59.933Z,18.33
2017-09-03T09:07:21.447Z,18.62
2017-09-03T09:08:43.634Z,18.69
2017-09-03T09:10:06.072Z,18.57
2017-09-03T09:11:28.572Z,18.67
2017-09-03T09:12:50.447Z,18.63
2017-09-03T09:14:12.943Z,18.63
2017-09-03T09:15:35.353Z,18.73
2017-09-03T09:16:57.974Z,18.73
2017-09-03T09:18:19.826Z,18.95
2017-09-03T09:19:42.328Z,18.85
2017-09-03T09:21:04.782Z,18.98
2017-09-03T09:22:26.761Z,19.11
2017-09-03T09:23:48.956Z,19.37
2017-09-03T09:25:10.793Z,19.47
2017-09-03T09:26:32.889Z,19.71
2017-09-03T09:27:55.044Z,19.81
2017-09-03T09:29:17.224Z,19.92
2017-09-03T09:30:39.059Z,19.73
2017-09-03T09:32:01.919Z,19.43
2017-09-03T09:33:24.075Z,19.33
2017-09-03T09:34:45.912Z,19.18
2017-09-03T09:36:08.384Z,19.23
2017-09-03T09:37:30.898Z,19.08
2017-09-03T09:38:52.402Z,19.21
2017-09-03T09:40:13.928Z,19.18
2017-09-03T09:41:36.158Z,19.29
2017-09-03T09:42:58.434Z,19.63
2017-09-03T09:44:20.924Z,20.11
2017-09-03T09:45:42.793Z,20.31
2017-09-03T09:47:04.958Z,20.64
2017-09-03T09:48:27.064Z,20.76
2017-09-03T09:49:49.266Z,20.77
2017-09-03T09:51:11.103Z,20.82
2017-09-03T09:52:33.313Z,20.87
2017-09-03T09:53:56.170Z,20.88
2017-09-03T09:55:18.352Z,20.79
2017-09-03T09:56:40.539Z,20.77
2017-09-03T09:58:02.353Z,20.77
2017-09-03T09:59:24.892Z,20.87
2017-09-03T10:00:47.103Z,20.92
2017-09-03T10:02:09.295Z,20.92
2017-09-03T10:03:31.464Z,20.91
2017-09-03T10:04:53.945Z,21.24
2017-09-03T10:06:16.290Z,21.28
2017-09-03T10:07:37.809Z,21.4
2017-09-03T10:09:00.323Z,21.52
2017-09-03T10:10:22.840Z,21.32
2017-09-03T10:11:45.034Z,21.34
2017-09-03T10:13:07.626Z,21.44
2017-09-03T10:14:29.920Z,21.5
2017-09-03T10:15:52.393Z,21.62
2017-09-03T10:17:14.594Z,21.67
2017-09-03T10:18:36.794Z,21.64
2017-09-03T10:19:58.654Z,21.59
2017-09-03T10:21:20.941Z,21.54
2017-09-03T10:22:42.150Z,21.62
2017-09-03T10:24:04.118Z,21.65
2017-09-03T10:25:26.343Z,21.92
2017-09-03T10:26:48.772Z,21.99
2017-09-03T10:28:10.620Z,22.03
2017-09-03T10:29:33.140Z,22.05
2017-09-03T10:30:55.093Z,21.21
2017-09-03T10:32:17.573Z,20.77
2017-09-03T10:33:39.093Z,20.77
2017-09-03T10:35:01.673Z,20.33
2017-09-03T10:36:23.843Z,20.47
2017-09-03T10:37:46.883Z,20.7
2017-09-03T10:39:08.755Z,20.79
2017-09-03T10:40:31.268Z,20.29
2017-09-03T10:41:52.962Z,19.99
2017-09-03T10:43:15.433Z,20.29
2017-09-03T10:44:37.407Z,20.32
2017-09-03T10:45:59.598Z,20.61
2017-09-03T10:47:21.457Z,20.98
2017-09-03T10:48:44.251Z,21.21
2017-09-03T10:50:06.444Z,21.49
2017-09-03T10:51:28.313Z,21.68
2017-09-03T10:52:50.498Z,22.03
2017-09-03T10:54:12.711Z,22.31
2017-09-03T10:55:34.663Z,22.37
2017-09-03T10:56:57.142Z,22.62
2017-09-03T10:58:19.337Z,22.65
2017-09-03T10:59:41.479Z,22.76
2017-09-03T11:01:03.693Z,22.88
2017-09-03T11:02:25.974Z,23.16
2017-09-03T11:03:48.146Z,23.16
2017-09-03T11:05:10.938Z,23.09
2017-09-03T11:06:33.351Z,22.98
2017-09-03T11:07:55.846Z,22.9
2017-09-03T11:09:18.333Z,22.8
2017-09-03T11:10:40.493Z,22.72
2017-09-03T11:12:03.877Z,22.7
2017-09-03T11:13:27.199Z,22.49
2017-09-03T11:14:50.264Z,22.61
2017-09-03T11:16:12.365Z,22.68
2017-09-03T11:17:34.853Z,22.54
2017-09-03T11:18:57.440Z,22.45
2017-09-03T11:20:19.944Z,22.33
2017-09-03T11:21:42.427Z,22.24
2017-09-03T11:23:04.918Z,22.31
2017-09-03T11:24:26.907Z,22.1
2017-09-03T11:25:49.404Z,22.14
2017-09-03T11:27:11.275Z,22.17
2017-09-03T11:28:33.505Z,22.12
2017-09-03T11:29:55.466Z,22.03
2017-09-03T11:31:17.660Z,21.64
2017-09-03T11:32:39.485Z,21.46
2017-09-03T11:34:01.965Z,21.43
2017-09-03T11:35:23.928Z,21.43
2017-09-03T11:36:45.834Z,21.46
2017-09-03T11:38:08.614Z,21.34
2017-09-03T11:39:31.219Z,21.19
2017-09-03T11:40:53.393Z,21.27
2017-09-03T11:42:16.208Z,21.35
2017-09-03T11:43:38.377Z,21.22
2017-09-03T11:45:00.875Z,21.12
2017-09-03T11:46:22.768Z,21.29
2017-09-03T11:47:45.243Z,21.38
2017-09-03T11:49:07.031Z,21.46
2017-09-03T11:50:29.547Z,21.46
2017-09-03T11:51:51.513Z,21.59
2017-09-03T11:53:13.350Z,21.64
2017-09-03T11:54:36.209Z,21.61
2017-09-03T11:55:58.380Z,21.62
2017-09-03T11:57:20.241Z,21.79
2017-09-03T11:58:41.466Z,21.88
2017-09-03T12:00:03.755Z,21.84
2017-09-03T12:01:25.933Z,21.67
2017-09-03T12:02:47.886Z,21.64
2017-09-03T12:04:10.209Z,21.53
2017-09-03T12:05:32.708Z,21.62
2017-09-03T12:06:54.576Z,21.56
2017-09-03T12:08:17.076Z,21.49
2017-09-03T12:09:38.923Z,21.28
2017-09-03T12:11:01.063Z,21.46
2017-09-03T12:12:23.230Z,21.52
2017-09-03T12:13:45.442Z,21.61
2017-09-03T12:15:07.281Z,21.67
2017-09-03T12:16:30.113Z,21.67
2017-09-03T12:17:51.733Z,21.58
2017-09-03T12:19:14.320Z,21.53
2017-09-03T12:20:36.802Z,21.42
2017-09-03T12:21:58.911Z,21.44
2017-09-03T12:23:21.102Z,21.54
2017-09-03T12:24:42.293Z,21.59
2017-09-03T12:26:03.833Z,21.56
2017-09-03T12:27:25.690Z,21.74
2017-09-03T12:28:47.532Z,21.72
2017-09-03T12:30:10.358Z,21.83
2017-09-03T12:31:32.181Z,21.98
2017-09-03T12:32:55.318Z,21.9
2017-09-03T12:34:17.498Z,21.82
2017-09-03T12:35:38.716Z,21.82
2017-09-03T12:37:00.247Z,21.8
2017-09-03T12:38:22.698Z,21.88
2017-09-03T12:39:45.162Z,21.88
2017-09-03T12:41:06.689Z,22.03
2017-09-03T12:42:28.532Z,22.06
2017-09-03T12:43:51.013Z,22.25
2017-09-03T12:45:13.193Z,22.67
2017-09-03T12:46:34.733Z,22.76
2017-09-03T12:47:57.223Z,22.88
2017-09-03T12:49:19.416Z,23.01
2017-09-03T12:50:41.603Z,22.95
2017-09-03T12:52:03.478Z,22.98
2017-09-03T12:53:26.193Z,22.88
2017-09-03T12:54:48.673Z,22.9
2017-09-03T12:56:11.013Z,22.92
2017-09-03T12:57:33.334Z,22.98
2017-09-03T12:58:55.556Z,23.07
2017-09-03T13:00:17.701Z,22.9
2017-09-03T13:01:39.912Z,22.37
2017-09-03T13:03:02.082Z,22.14
2017-09-03T13:04:24.375Z,21.98
2017-09-03T13:05:47.020Z,21.84
2017-09-03T13:07:09.169Z,21.4
2017-09-03T13:08:31.663Z,21.29
2017-09-03T13:09:54.275Z,20.85
2017-09-03T13:11:16.479Z,20.32
2017-09-03T13:12:38.686Z,20.35
2017-09-03T13:14:00.206Z,20.52
2017-09-03T13:15:22.763Z,20.55
2017-09-03T13:16:45.370Z,20.74
2017-09-03T13:18:07.228Z,20.77
2017-09-03T13:19:29.175Z,20.8
2017-09-03T13:20:51.072Z,20.79
2017-09-03T13:22:13.595Z,20.99
2017-09-03T13:23:35.773Z,21.19
2017-09-03T13:24:58.062Z,21.37
2017-09-03T13:26:20.562Z,21.52
2017-09-03T13:27:43.425Z,21.72
2017-09-03T13:29:05.932Z,22.03
2017-09-03T13:30:28.093Z,22.2
2017-09-03T13:31:50.263Z,22.28
2017-09-03T13:33:13.078Z,22.36
2017-09-03T13:34:34.611Z,22.33
2017-09-03T13:35:56.860Z,22.12
2017-09-03T13:37:19.027Z,22.06
2017-09-03T13:38:41.523Z,22
2017-09-03T13:40:04.047Z,22.03
2017-09-03T13:41:26.570Z,22
2017-09-03T13:42:49.102Z,22.02
2017-09-03T13:44:11.264Z,22.03
2017-09-03T13:45:33.443Z,21.94
2017-09-03T13:46:55.365Z,21.88
2017-09-03T13:48:17.527Z,21.77
2017-09-03T13:49:40.374Z,21.77
2017-09-03T13:51:02.909Z,21.59
2017-09-03T13:52:24.875Z,21.65
2017-09-03T13:53:47.069Z,21.62
2017-09-03T13:55:09.169Z,21.5
2017-09-03T13:56:31.643Z,21.46
2017-09-03T13:57:53.492Z,21.4
2017-09-03T13:59:16.013Z,21.31
2017-09-03T14:00:38.794Z,21.52
2017-09-03T14:02:00.641Z,21.61
2017-09-03T14:03:23.184Z,21.64
2017-09-03T14:04:45.685Z,21.65
2017-09-03T14:06:08.263Z,21.65
2017-09-03T14:07:30.447Z,21.67
2017-09-03T14:08:52.631Z,21.61
2017-09-03T14:10:14.456Z,21.59
2017-09-03T14:11:36.601Z,21.44
2017-09-03T14:12:58.773Z,21.32
2017-09-03T14:14:21.461Z,21.16
2017-09-03T14:15:43.940Z,21.13
2017-09-03T14:17:06.092Z,21.16
2017-09-03T14:18:28.285Z,21.14
2017-09-03T14:19:49.890Z,21.22
2017-09-03T14:21:11.726Z,21.25
2017-09-03T14:22:34.202Z,21.19
2017-09-03T14:23:56.175Z,21.17
2017-09-03T14:25:18.682Z,21.19
2017-09-03T14:26:41.193Z,21.24
2017-09-03T14:28:04.009Z,21.19
2017-09-03T14:29:26.215Z,21.01
2017-09-03T14:30:48.075Z,20.95
2017-09-03T14:32:10.220Z,20.74
2017-09-03T14:33:32.311Z,20.61
2017-09-03T14:34:53.853Z,20.38
2017-09-03T14:36:16.033Z,20.36
2017-09-03T14:37:37.552Z,20.18
2017-09-03T14:39:00.047Z,20.1
2017-09-03T14:40:21.564Z,20.06
2017-09-03T14:41:43.745Z,20.06
2017-09-03T14:43:06.345Z,20.11
2017-09-03T14:44:28.796Z,20.28
2017-09-03T14:45:51.034Z,20.35
2017-09-03T14:47:13.564Z,20.39
2017-09-03T14:48:35.795Z,20.5
2017-09-03T14:49:57.685Z,20.58
2017-09-03T14:51:19.856Z,20.66
2017-09-03T14:52:42.386Z,20.74
2017-09-03T14:54:04.399Z,20.64
2017-09-03T14:55:26.615Z,20.7
2017-09-03T14:56:48.393Z,20.77
2017-09-03T14:58:09.925Z,20.61
2017-09-03T14:59:32.130Z,20.66
2017-09-03T15:00:54.333Z,20.59
2017-09-03T15:02:15.850Z,20.59
2017-09-03T15:03:37.709Z,20.58
2017-09-03T15:05:00.265Z,20.77
2017-09-03T15:06:22.472Z,20.84
2017-09-03T15:07:44.342Z,20.8
2017-09-03T15:09:06.202Z,20.88
2017-09-03T15:10:28.403Z,20.89
2017-09-03T15:11:51.158Z,20.89
2017-09-03T15:13:13.000Z,20.88
2017-09-03T15:14:35.172Z,20.87
2017-09-03T15:15:57.756Z,20.85
2017-09-03T15:17:20.318Z,20.64
2017-09-03T15:18:42.894Z,20.5
2017-09-03T15:20:04.754Z,20.32
2017-09-03T15:21:27.292Z,20.33
2017-09-03T15:22:49.434Z,20.2
2017-09-03T15:24:11.623Z,20.24
2017-09-03T15:25:33.511Z,20.24
2017-09-03T15:26:56.113Z,20.08
2017-09-03T15:28:17.895Z,20.08
2017-09-03T15:29:39.777Z,20.06
2017-09-03T15:31:02.304Z,20.03
2017-09-03T15:32:24.185Z,20.01
2017-09-03T15:33:46.362Z,19.94
2017-09-03T15:35:08.263Z,19.98
2017-09-03T15:36:30.468Z,19.95
2017-09-03T15:37:52.317Z,19.77
2017-09-03T15:39:14.755Z,19.77
2017-09-03T15:40:36.953Z,19.68
2017-09-03T15:41:59.451Z,19.71
2017-09-03T15:43:21.322Z,19.77
2017-09-03T15:44:44.083Z,19.74
2017-09-03T15:46:06.263Z,19.94
2017-09-03T15:47:28.142Z,19.99
2017-09-03T15:48:50.333Z,20.02
2017-09-03T15:50:13.093Z,19.95
2017-09-03T15:51:35.401Z,19.96
2017-09-03T15:52:57.373Z,20.02
2017-09-03T15:54:19.557Z,19.92
2017-09-03T15:55:42.485Z,19.81
2017-09-03T15:57:04.666Z,19.76
2017-09-03T15:58:26.528Z,19.76
2017-09-03T15:59:49.151Z,19.71
2017-09-03T16:01:11.671Z,19.59
2017-09-03T16:02:34.173Z,19.56
2017-09-03T16:03:56.673Z,19.39
2017-09-03T16:05:18.853Z,19.41
2017-09-03T16:06:40.634Z,19.28
2017-09-03T16:08:02.525Z,19.26
2017-09-03T16:09:25.184Z,19.18
2017-09-03T16:10:47.394Z,19.06
2017-09-03T16:12:09.878Z,19.07
2017-09-03T16:13:32.415Z,19.14
2017-09-03T16:14:54.293Z,19.08
2017-09-03T16:16:16.497Z,19.14
2017-09-03T16:17:39.295Z,19.13
2017-09-03T16:19:01.505Z,19.19
2017-09-03T16:20:24.033Z,19.25
2017-09-03T16:21:46.606Z,19.31
2017-09-03T16:23:08.822Z,19.36
2017-09-03T16:24:31.468Z,19.43
2017-09-03T16:25:54.214Z,19.46
2017-09-03T16:27:16.697Z,19.55
2017-09-03T16:28:38.203Z,19.65
2017-09-03T16:30:00.388Z,19.59
2017-09-03T16:31:22.253Z,19.68
2017-09-03T16:32:44.841Z,19.73
2017-09-03T16:34:06.301Z,19.73
2017-09-03T16:35:28.148Z,19.62
2017-09-03T16:36:49.810Z,19.71
2017-09-03T16:38:11.022Z,19.76
2017-09-03T16:39:32.863Z,19.73
2017-09-03T16:40:54.773Z,19.74
2017-09-03T16:42:16.988Z,19.96
2017-09-03T16:43:39.194Z,19.91
2017-09-03T16:45:01.724Z,19.95
2017-09-03T16:46:23.247Z,19.96
2017-09-03T16:47:45.412Z,19.92
2017-09-03T16:49:07.605Z,19.95
2017-09-03T16:50:29.751Z,19.95
2017-09-03T16:51:52.000Z,19.83
2017-09-03T16:53:13.951Z,19.71
2017-09-03T16:54:35.834Z,19.66
2017-09-03T16:55:58.694Z,19.58
2017-09-03T16:57:21.412Z,19.47
2017-09-03T16:58:43.374Z,19.37
2017-09-03T17:00:05.857Z,19.31
2017-09-03T17:01:28.364Z,19.18
2017-09-03T17:02:50.557Z,19.11
2017-09-03T17:04:12.155Z,19.1
2017-09-03T17:05:34.704Z,18.94
2017-09-03T17:06:56.809Z,18.82
2017-09-03T17:08:19.016Z,18.87
2017-09-03T17:09:41.205Z,18.67
2017-09-03T17:11:02.831Z,18.55
2017-09-03T17:12:25.706Z,18.58
2017-09-03T17:13:48.216Z,18.47
2017-09-03T17:15:10.413Z,18.33
2017-09-03T17:16:32.923Z,18.29
2017-09-03T17:17:55.674Z,18.18
2017-09-03T17:19:17.998Z,18.11
2017-09-03T17:20:40.210Z,17.95
2017-09-03T17:22:02.086Z,17.81
2017-09-03T17:23:24.873Z,17.75
2017-09-03T17:24:47.384Z,17.64
2017-09-03T17:26:09.241Z,17.56
2017-09-03T17:27:31.444Z,17.4
2017-09-03T17:28:53.685Z,17.55
2017-09-03T17:30:15.968Z,17.48
2017-09-03T17:31:38.485Z,17.33
2017-09-03T17:32:59.788Z,17.23
2017-09-03T17:34:22.320Z,17.23
2017-09-03T17:35:45.546Z,17.21
2017-09-03T17:37:07.756Z,17.06
2017-09-03T17:38:30.345Z,16.93
2017-09-03T17:39:53.156Z,17
2017-09-03T17:41:15.657Z,16.93
2017-09-03T17:42:37.893Z,16.89
2017-09-03T17:44:00.416Z,16.63
2017-09-03T17:45:22.675Z,16.66
2017-09-03T17:46:45.221Z,16.63
2017-09-03T17:48:07.385Z,16.56
2017-09-03T17:49:28.965Z,16.43
2017-09-03T17:50:51.265Z,16.31